createdAt,value
2023-05-17T00:01:46.886Z,100637.75
2023-05-17T00:04:13.451Z,100621.94
2023-05-17T00:06:39.860Z,100640.34
2023-05-17T00:09:06.248Z,100643.00
2023-05-17T00:11:32.625Z,100637.66
2023-05-17T00:13:58.980Z,100641.19
2023-05-17T00:16:25.418Z,100628.88
2023-05-17T00:18:51.839Z,100638.63
2023-05-17T00:21:18.426Z,100638.69
2023-05-17T00:23:44.784Z,100639.56
2023-05-17T00:26:11.174Z,100641.34
2023-05-17T00:28:37.490Z,100634.38
2023-05-17T00:31:03.815Z,100639.75
2023-05-17T00:33:30.544Z,100636.28
2023-05-17T00:35:56.922Z,100645.94
2023-05-17T00:38:23.319Z,100640.66
2023-05-17T00:40:50.724Z,100642.47
2023-05-17T00:43:17.099Z,100638.94
2023-05-17T00:45:43.569Z,100651.25
2023-05-17T00:48:10.095Z,100651.25
2023-05-17T00:50:36.635Z,100641.59
2023-05-17T00:53:03.693Z,100638.09
2023-05-17T00:55:30.475Z,100644.22
2023-05-17T00:57:57.200Z,100639.88
2023-05-17T01:00:23.977Z,100645.19
2023-05-17T01:02:50.668Z,100649.59
2023-05-17T01:05:17.198Z,100653.19
2023-05-17T01:07:43.618Z,100664.72
2023-05-17T01:10:10.398Z,100658.59
2023-05-17T01:12:45.641Z,100658.63
2023-05-17T01:15:38.258Z,100661.38
2023-05-17T01:18:23.824Z,100667.59
2023-05-17T01:20:52.725Z,100667.66
2023-05-17T01:24:03.491Z,100669.50
2023-05-17T01:26:44.137Z,100673.13
2023-05-17T01:29:14.204Z,100678.47
2023-05-17T01:31:41.809Z,100681.16
2023-05-17T01:34:09.108Z,100686.50
2023-05-17T01:36:36.094Z,100681.25
2023-05-17T01:39:03.214Z,100673.34
2023-05-17T01:41:36.629Z,100676.91
2023-05-17T01:44:17.522Z,100682.22
2023-05-17T01:46:44.312Z,100681.38
2023-05-17T01:49:21.616Z,100681.44
2023-05-17T01:51:52.502Z,100687.66
2023-05-17T01:54:23.010Z,100691.22
2023-05-17T01:56:57.331Z,100687.75
2023-05-17T01:59:25.465Z,100679.91
2023-05-17T02:01:58.626Z,100686.06
2023-05-17T02:04:24.989Z,100677.28
2023-05-17T02:06:51.388Z,100684.34
2023-05-17T02:09:17.727Z,100688.75
2023-05-17T02:11:44.107Z,100688.81
2023-05-17T02:14:10.964Z,100691.50
2023-05-17T02:16:37.272Z,100697.66
2023-05-17T02:19:03.678Z,100699.47
2023-05-17T02:21:30.007Z,100707.41
2023-05-17T02:23:56.549Z,100706.53
2023-05-17T02:26:22.909Z,100699.50
2023-05-17T02:28:49.268Z,100699.50
2023-05-17T02:31:15.666Z,100703.91
2023-05-17T02:33:42.064Z,100696.03
2023-05-17T02:36:08.713Z,100692.56
2023-05-17T02:38:35.044Z,100691.72
2023-05-17T02:41:01.345Z,100705.78
2023-05-17T02:43:27.656Z,100708.44
2023-05-17T02:45:53.979Z,100716.38
2023-05-17T02:48:20.448Z,100715.50
2023-05-17T02:50:46.782Z,100713.81
2023-05-17T02:53:13.102Z,100719.97
2023-05-17T02:55:39.418Z,100723.53
2023-05-17T02:58:05.800Z,100733.25
2023-05-17T03:00:32.175Z,100727.97
2023-05-17T03:02:58.634Z,100727.97
2023-05-17T03:05:25.005Z,100715.72
2023-05-17T03:07:51.623Z,100740.31
2023-05-17T03:10:18.001Z,100730.66
2023-05-17T03:12:44.800Z,100729.78
2023-05-17T03:15:11.431Z,100724.50
2023-05-17T03:17:37.865Z,100742.09
2023-05-17T03:20:06.336Z,100736.81
2023-05-17T03:22:32.689Z,100733.31
2023-05-17T03:24:59.008Z,100739.44
2023-05-17T03:27:25.343Z,100744.72
2023-05-17T03:29:51.675Z,100738.59
2023-05-17T03:32:18.010Z,100742.13
2023-05-17T03:34:44.351Z,100752.66
2023-05-17T03:37:10.894Z,100755.31
2023-05-17T03:39:37.219Z,100755.34
2023-05-17T03:42:03.683Z,100745.66
2023-05-17T03:44:30.040Z,100756.22
2023-05-17T03:46:56.362Z,100765.88
2023-05-17T03:49:22.915Z,100750.94
2023-05-17T03:51:49.292Z,100762.34
2023-05-17T03:54:15.650Z,100769.38
2023-05-17T03:56:46.885Z,100764.13
2023-05-17T03:59:13.790Z,100775.53
2023-05-17T04:01:40.335Z,100768.53
2023-05-17T04:04:06.898Z,100778.22
2023-05-17T04:06:33.309Z,100765.91
2023-05-17T04:08:59.910Z,100769.41
2023-05-17T04:11:27.507Z,100765.88
2023-05-17T04:13:54.873Z,100766.72
2023-05-17T04:16:21.236Z,100772.88
2023-05-17T04:18:47.801Z,100779.91
2023-05-17T04:21:14.253Z,100773.72
2023-05-17T04:23:40.652Z,100775.47
2023-05-17T04:26:07.268Z,100784.25
2023-05-17T04:28:35.005Z,100773.69
2023-05-17T04:31:01.560Z,100780.72
2023-05-17T04:33:28.055Z,100787.75
2023-05-17T04:35:55.572Z,100773.69
2023-05-17T04:38:22.128Z,100778.09
2023-05-17T04:40:48.481Z,100781.59
2023-05-17T04:43:14.905Z,100785.06
2023-05-17T04:45:41.401Z,100774.53
2023-05-17T04:48:08.316Z,100783.28
2023-05-17T04:50:34.754Z,100785.91
2023-05-17T04:53:01.193Z,100794.69
2023-05-17T04:55:27.740Z,100794.69
2023-05-17T04:57:54.377Z,100811.34
2023-05-17T05:00:22.916Z,100810.47
2023-05-17T05:02:49.812Z,100814.84
2023-05-17T05:05:16.190Z,100814.81
2023-05-17T05:07:42.499Z,100809.53
2023-05-17T05:10:08.954Z,100814.78
2023-05-17T05:12:35.323Z,100818.28
2023-05-17T05:15:01.727Z,100819.13
2023-05-17T05:17:30.935Z,100826.97
2023-05-17T05:19:57.624Z,100827.81
2023-05-17T05:22:24.040Z,100827.75
2023-05-17T05:24:50.529Z,100839.13
2023-05-17T05:27:16.921Z,100840.84
2023-05-17T05:29:43.320Z,100848.69
2023-05-17T05:32:09.765Z,100840.72
2023-05-17T05:34:36.088Z,100843.28
2023-05-17T05:37:02.398Z,100852.94
2023-05-17T05:39:28.981Z,100843.16
2023-05-17T05:41:55.341Z,100850.06
2023-05-17T05:44:23.334Z,100851.75
2023-05-17T05:46:50.933Z,100849.00
2023-05-17T05:49:17.383Z,100861.25
2023-05-17T05:51:43.774Z,100848.81
2023-05-17T05:54:10.603Z,100860.25
2023-05-17T05:56:36.849Z,100859.28
2023-05-17T05:59:03.576Z,100858.28
2023-05-17T06:01:29.909Z,100864.38
2023-05-17T06:03:56.232Z,100860.81
2023-05-17T06:06:22.739Z,100868.63
2023-05-17T06:08:49.259Z,100862.38
2023-05-17T06:11:15.719Z,100867.53
2023-05-17T06:13:42.108Z,100869.22
2023-05-17T06:16:08.441Z,100877.13
2023-05-17T06:18:34.869Z,100888.56
2023-05-17T06:21:01.267Z,100885.84
2023-05-17T06:23:27.923Z,100887.50
2023-05-17T06:25:54.284Z,100892.72
2023-05-17T06:28:20.626Z,100888.16
2023-05-17T06:30:47.076Z,100885.34
2023-05-17T06:33:13.481Z,100896.47
2023-05-17T06:35:54.992Z,100893.63
2023-05-17T06:38:22.726Z,100892.56
2023-05-17T06:40:53.027Z,100903.00
2023-05-17T06:43:19.346Z,100899.41
2023-05-17T06:45:45.718Z,100899.34
2023-05-17T06:48:12.852Z,100897.56
2023-05-17T06:50:39.271Z,100905.28
2023-05-17T06:53:05.705Z,100893.69
2023-05-17T06:55:32.104Z,100913.09
2023-05-17T06:58:00.210Z,100917.50
2023-05-17T07:00:26.710Z,100917.56
2023-05-17T07:02:53.307Z,100921.22
2023-05-17T07:05:19.831Z,100916.06
2023-05-17T07:07:46.274Z,100927.63
2023-05-17T07:10:12.608Z,100927.66
2023-05-17T07:12:39.070Z,100922.28
2023-05-17T07:15:06.020Z,100929.28
2023-05-17T07:17:32.461Z,100925.75
2023-05-17T07:19:59.311Z,100922.34
2023-05-17T07:22:25.749Z,100931.06
2023-05-17T07:24:52.162Z,100932.00
2023-05-17T07:27:18.815Z,100916.09
2023-05-17T07:29:45.287Z,100929.16
2023-05-17T07:32:11.615Z,100929.16
2023-05-17T07:34:38.041Z,100932.56
2023-05-17T07:37:04.697Z,100925.38
2023-05-17T07:39:31.164Z,100928.00
2023-05-17T07:41:57.487Z,100929.75
2023-05-17T07:44:23.834Z,100923.34
2023-05-17T07:46:50.365Z,100921.22
2023-05-17T07:49:18.014Z,100912.16
2023-05-17T07:51:44.503Z,100920.41
2023-05-17T07:54:21.888Z,100927.88
2023-05-17T07:56:48.277Z,100930.22
2023-05-17T07:59:14.588Z,100927.41
2023-05-17T08:01:40.918Z,100911.41
2023-05-17T08:04:07.470Z,100920.81
2023-05-17T08:06:33.990Z,100919.53
2023-05-17T08:09:00.481Z,100916.75
2023-05-17T08:11:26.874Z,100913.91
2023-05-17T08:13:53.197Z,100913.34
2023-05-17T08:16:19.568Z,100896.38
2023-05-17T08:18:46.198Z,100900.44
2023-05-17T08:21:12.656Z,100904.47
2023-05-17T08:23:40.723Z,100892.19
2023-05-17T08:26:07.225Z,100893.16
2023-05-17T08:28:33.732Z,100904.28
2023-05-17T08:31:00.336Z,100892.78
2023-05-17T08:33:27.399Z,100906.75
2023-05-17T08:35:55.333Z,100884.41
2023-05-17T08:38:22.229Z,100885.25
2023-05-17T08:40:55.972Z,100892.28
2023-05-17T08:43:26.815Z,100888.78
2023-05-17T08:45:54.358Z,100896.50
2023-05-17T08:48:20.934Z,100891.19
2023-05-17T08:50:50.178Z,100895.34
2023-05-17T08:53:20.029Z,100903.81
2023-05-17T08:55:48.885Z,100905.94
2023-05-17T08:58:19.038Z,100910.53
2023-05-17T09:00:47.518Z,100908.97
2023-05-17T09:03:17.698Z,100891.38
2023-05-17T09:05:45.493Z,100899.38
2023-05-17T09:08:13.974Z,100903.81
2023-05-17T09:10:41.504Z,100901.13
2023-05-17T09:13:08.121Z,100906.34
2023-05-17T09:15:34.547Z,100907.16
2023-05-17T09:18:01.310Z,100917.56
2023-05-17T09:20:35.011Z,100909.22
2023-05-17T09:23:02.490Z,100904.31
2023-05-17T09:25:30.241Z,100900.91
2023-05-17T09:28:04.202Z,100906.34
2023-05-17T09:30:33.135Z,100915.13
2023-05-17T09:33:11.882Z,100911.31
2023-05-17T09:35:39.817Z,100898.22
2023-05-17T09:38:11.222Z,100900.19
2023-05-17T09:40:41.727Z,100900.03
2023-05-17T09:43:08.702Z,100881.22
2023-05-17T09:45:38.751Z,100883.78
2023-05-17T09:48:16.394Z,100889.75
2023-05-17T09:50:52.489Z,100892.44
2023-05-17T09:53:29.483Z,100883.97
2023-05-17T09:55:58.660Z,100882.47
2023-05-17T09:58:26.142Z,100890.09
2023-05-17T10:00:54.206Z,100872.09
2023-05-17T10:03:21.261Z,100889.16
2023-05-17T10:05:53.274Z,100882.34
2023-05-17T10:08:23.039Z,100874.91
2023-05-17T10:10:50.696Z,100888.53
2023-05-17T10:13:22.262Z,100874.88
2023-05-17T10:15:48.934Z,100874.25
2023-05-17T10:18:16.183Z,100882.28
2023-05-17T10:20:43.374Z,100881.91
2023-05-17T10:23:11.835Z,100883.31
2023-05-17T10:25:38.826Z,100871.03
2023-05-17T10:28:08.349Z,100880.34
2023-05-17T10:30:36.017Z,100869.66
2023-05-17T10:33:03.891Z,100879.22
2023-05-17T10:35:32.371Z,100864.25
2023-05-17T10:37:58.729Z,100871.22
2023-05-17T10:40:25.255Z,100863.41
2023-05-17T10:42:52.766Z,100867.13
2023-05-17T10:45:25.335Z,100862.72
2023-05-17T10:47:52.841Z,100865.59
2023-05-17T10:50:24.958Z,100861.38
2023-05-17T10:52:53.366Z,100873.66
2023-05-17T10:55:22.574Z,100845.78
2023-05-17T10:58:09.568Z,100870.25
2023-05-17T11:00:56.370Z,100863.13
2023-05-17T11:03:29.990Z,100857.66
2023-05-17T11:06:24.733Z,100865.53
2023-05-17T11:09:14.979Z,100854.91
2023-05-17T11:12:05.059Z,100853.34
2023-05-17T11:14:46.492Z,100844.56
2023-05-17T11:17:17.870Z,100835.78
2023-05-17T11:20:10.856Z,100845.75
2023-05-17T11:22:42.234Z,100843.97
2023-05-17T11:25:13.394Z,100839.91
2023-05-17T11:27:45.379Z,100845.19
2023-05-17T11:30:31.197Z,100853.91
2023-05-17T11:33:20.508Z,100855.41
2023-05-17T11:35:55.622Z,100856.38
2023-05-17T11:38:24.501Z,100840.25
2023-05-17T11:40:54.710Z,100858.97
2023-05-17T11:43:25.655Z,100855.88
2023-05-17T11:45:54.644Z,100853.69
2023-05-17T11:48:22.703Z,100852.81
2023-05-17T11:50:50.547Z,100858.22
2023-05-17T11:53:17.528Z,100853.63
2023-05-17T11:55:49.089Z,100854.56
2023-05-17T11:58:17.320Z,100853.19
2023-05-17T12:00:44.957Z,100844.59
2023-05-17T12:03:24.643Z,100843.09
2023-05-17T12:06:02.070Z,100839.88
2023-05-17T12:08:28.720Z,100846.25
2023-05-17T12:10:57.099Z,100844.47
2023-05-17T12:13:23.812Z,100840.19
2023-05-17T12:15:57.082Z,100842.84
2023-05-17T12:18:24.644Z,100838.97
2023-05-17T12:20:58.614Z,100821.28
2023-05-17T12:23:37.263Z,100824.63
2023-05-17T12:26:11.728Z,100828.50
2023-05-17T12:28:40.770Z,100823.13
2023-05-17T12:31:13.116Z,100820.66
2023-05-17T12:33:42.665Z,100815.94
2023-05-17T12:36:12.225Z,100819.53
2023-05-17T12:38:41.230Z,100821.47
2023-05-17T12:41:12.364Z,100816.47
2023-05-17T12:43:39.788Z,100817.09
2023-05-17T12:46:08.577Z,100816.13
2023-05-17T12:48:39.626Z,100795.13
2023-05-17T12:51:13.659Z,100823.19
2023-05-17T12:53:42.294Z,100815.84
2023-05-17T12:56:15.614Z,100811.53
2023-05-17T12:58:42.079Z,100806.22
2023-05-17T13:01:10.721Z,100803.88
2023-05-17T13:03:37.300Z,100809.78
2023-05-17T13:06:06.881Z,100802.78
2023-05-17T13:08:33.802Z,100794.03
2023-05-17T13:11:07.974Z,100792.53
2023-05-17T13:13:34.598Z,100788.88
2023-05-17T13:16:00.938Z,100786.69
2023-05-17T13:18:27.518Z,100797.44
2023-05-17T13:20:54.324Z,100792.13
2023-05-17T13:23:20.710Z,100798.91
2023-05-17T13:25:46.960Z,100793.59
2023-05-17T13:28:13.346Z,100789.78
2023-05-17T13:30:40.142Z,100797.94
2023-05-17T13:33:06.655Z,100797.94
2023-05-17T13:35:33.055Z,100789.66
2023-05-17T13:37:59.344Z,100781.53
2023-05-17T13:40:25.712Z,100779.03
2023-05-17T13:42:53.341Z,100783.63
2023-05-17T13:45:19.698Z,100765.13
2023-05-17T13:47:46.081Z,100780.34
2023-05-17T13:50:15.843Z,100774.59
2023-05-17T13:52:42.210Z,100769.66
2023-05-17T13:55:08.602Z,100774.84
2023-05-17T13:57:35.016Z,100773.66
2023-05-17T14:00:01.617Z,100762.22
2023-05-17T14:02:27.999Z,100756.41
2023-05-17T14:04:54.327Z,100755.69
2023-05-17T14:07:20.679Z,100763.31
2023-05-17T14:09:47.031Z,100769.22
2023-05-17T14:12:13.482Z,100752.06
2023-05-17T14:14:39.804Z,100746.75
2023-05-17T14:17:06.187Z,100752.28
2023-05-17T14:19:32.585Z,100749.44
2023-05-17T14:21:59.004Z,100740.47
2023-05-17T14:24:25.758Z,100748.25
2023-05-17T14:26:52.203Z,100758.63
2023-05-17T14:29:18.491Z,100764.00
2023-05-17T14:31:44.848Z,100757.94
2023-05-17T14:34:11.208Z,100752.47
2023-05-17T14:36:38.294Z,100718.94
2023-05-17T14:39:05.408Z,100746.50
2023-05-17T14:41:33.029Z,100747.28
2023-05-17T14:44:00.594Z,100750.91
2023-05-17T14:46:26.954Z,100754.56
2023-05-17T14:48:53.380Z,100750.28
2023-05-17T14:51:19.842Z,100751.41
2023-05-17T14:53:46.493Z,100745.91
2023-05-17T14:56:14.653Z,100744.19
2023-05-17T14:58:42.161Z,100759.28
2023-05-17T15:01:09.135Z,100756.72
2023-05-17T15:03:35.823Z,100745.56
2023-05-17T15:06:05.399Z,100754.00
2023-05-17T15:08:33.534Z,100756.25
2023-05-17T15:10:59.938Z,100756.94
2023-05-17T15:13:26.460Z,100751.75
2023-05-17T15:15:53.017Z,100758.72
2023-05-17T15:18:20.779Z,100748.75
2023-05-17T15:20:47.181Z,100756.03
2023-05-17T15:23:13.570Z,100758.47
2023-05-17T15:25:41.053Z,100747.53
2023-05-17T15:28:07.548Z,100743.22
2023-05-17T15:30:33.935Z,100755.63
2023-05-17T15:33:00.290Z,100748.19
2023-05-17T15:35:27.279Z,100754.44
2023-05-17T15:37:53.946Z,100759.34
2023-05-17T15:40:21.634Z,100754.19
2023-05-17T15:42:48.072Z,100718.88
2023-05-17T15:45:14.419Z,100736.84
2023-05-17T15:47:43.548Z,100739.59
2023-05-17T15:50:11.026Z,100738.53
2023-05-17T15:52:37.586Z,100722.44
2023-05-17T15:55:04.278Z,100746.09
2023-05-17T15:57:30.858Z,100738.00
2023-05-17T15:59:57.165Z,100739.03
2023-05-17T16:02:24.477Z,100754.88
2023-05-17T16:04:51.220Z,100752.94
2023-05-17T16:07:17.881Z,100752.06
2023-05-17T16:09:44.329Z,100734.56
2023-05-17T16:12:10.596Z,100746.38
2023-05-17T16:14:38.941Z,100751.66
2023-05-17T16:17:05.285Z,100752.84
2023-05-17T16:19:33.999Z,100748.41
2023-05-17T16:22:01.345Z,100748.53
2023-05-17T16:24:27.955Z,100746.75
2023-05-17T16:26:54.311Z,100728.66
2023-05-17T16:29:20.619Z,100751.66
2023-05-17T16:31:48.061Z,100739.47
2023-05-17T16:34:15.512Z,100748.97
2023-05-17T16:36:42.005Z,100746.91
2023-05-17T16:39:08.390Z,100749.16
2023-05-17T16:41:35.730Z,100755.78
2023-05-17T16:44:02.097Z,100748.69
2023-05-17T16:46:28.482Z,100759.66
2023-05-17T16:48:55.466Z,100758.94
2023-05-17T16:51:21.939Z,100757.50
2023-05-17T16:53:48.696Z,100744.84
2023-05-17T16:56:15.299Z,100756.25
2023-05-17T16:58:41.642Z,100755.34
2023-05-17T17:01:07.997Z,100763.94
2023-05-17T17:03:34.454Z,100758.16
2023-05-17T17:06:01.034Z,100767.50
2023-05-17T17:08:27.419Z,100758.56
2023-05-17T17:10:53.911Z,100761.72
2023-05-17T17:13:20.558Z,100764.47
2023-05-17T17:15:47.184Z,100754.81
2023-05-17T17:18:13.607Z,100736.53
2023-05-17T17:20:40.011Z,100767.66
2023-05-17T17:23:06.451Z,100766.47
2023-05-17T17:25:32.971Z,100761.75
2023-05-17T17:27:59.316Z,100755.31
2023-05-17T17:30:25.762Z,100761.06
2023-05-17T17:32:52.247Z,100761.38
2023-05-17T17:35:18.776Z,100754.00
2023-05-17T17:37:45.392Z,100761.81
2023-05-17T17:40:12.813Z,100771.06
2023-05-17T17:42:39.256Z,100771.34
2023-05-17T17:45:05.916Z,100767.16
2023-05-17T17:47:32.319Z,100764.88
2023-05-17T17:49:58.674Z,100767.78
2023-05-17T17:52:25.219Z,100763.59
2023-05-17T17:54:51.545Z,100770.00
2023-05-17T17:57:19.302Z,100778.44
2023-05-17T17:59:45.670Z,100775.16
2023-05-17T18:02:12.055Z,100771.16
2023-05-17T18:04:39.341Z,100786.09
2023-05-17T18:07:06.035Z,100781.84
2023-05-17T18:09:32.396Z,100777.75
2023-05-17T18:11:59.601Z,100776.13
2023-05-17T18:14:26.023Z,100783.38
2023-05-17T18:16:52.539Z,100781.66
2023-05-17T18:19:19.341Z,100794.41
2023-05-17T18:21:45.811Z,100787.50
2023-05-17T18:24:12.450Z,100785.97
2023-05-17T18:26:38.847Z,100795.78
2023-05-17T18:29:05.243Z,100789.06
2023-05-17T18:31:31.806Z,100794.50
2023-05-17T18:33:58.293Z,100798.41
2023-05-17T18:36:24.588Z,100803.13
2023-05-17T18:38:51.088Z,100795.66
2023-05-17T18:41:17.356Z,100800.31
2023-05-17T18:43:43.725Z,100791.16
2023-05-17T18:46:10.109Z,100801.94
2023-05-17T18:48:36.929Z,100789.00
2023-05-17T18:51:03.467Z,100784.91
2023-05-17T18:53:29.901Z,100807.09
2023-05-17T18:56:01.280Z,100770.50
2023-05-17T18:58:27.736Z,100812.94
2023-05-17T19:00:55.100Z,100804.50
2023-05-17T19:03:22.476Z,100816.31
2023-05-17T19:05:49.138Z,100816.63
2023-05-17T19:08:15.631Z,100816.84
2023-05-17T19:10:42.136Z,100814.50
2023-05-17T19:13:08.435Z,100816.50
2023-05-17T19:15:34.818Z,100819.63
2023-05-17T19:18:01.289Z,100840.13
2023-05-17T19:20:27.883Z,100835.94
2023-05-17T19:22:54.572Z,100830.91
2023-05-17T19:25:21.327Z,100840.66
2023-05-17T19:27:47.812Z,100840.00
2023-05-17T19:30:14.233Z,100843.66
2023-05-17T19:32:40.993Z,100849.06
2023-05-17T19:35:07.771Z,100850.00
2023-05-17T19:37:34.117Z,100855.47
2023-05-17T19:40:00.560Z,100843.34
2023-05-17T19:42:27.458Z,100861.84
2023-05-17T19:44:53.767Z,100855.94
2023-05-17T19:47:20.094Z,100862.97
2023-05-17T19:49:46.439Z,100870.13
2023-05-17T19:52:12.936Z,100869.41
2023-05-17T19:54:39.268Z,100873.00
2023-05-17T19:57:05.837Z,100872.22
2023-05-17T19:59:32.195Z,100870.56
2023-05-17T20:01:58.544Z,100874.22
2023-05-17T20:04:25.254Z,100876.13
2023-05-17T20:06:51.783Z,100877.13
2023-05-17T20:09:18.132Z,100879.91
2023-05-17T20:11:44.522Z,100874.84
2023-05-17T20:14:12.147Z,100871.44
2023-05-17T20:16:38.745Z,100893.56
2023-05-17T20:19:05.269Z,100885.63
2023-05-17T20:21:31.782Z,100885.66
2023-05-17T20:24:03.390Z,100895.47
2023-05-17T20:26:32.125Z,100897.50
2023-05-17T20:29:01.560Z,100899.31
2023-05-17T20:31:27.939Z,100888.00
2023-05-17T20:33:54.881Z,100899.50
2023-05-17T20:36:21.190Z,100885.50
2023-05-17T20:38:47.586Z,100893.38
2023-05-17T20:41:15.771Z,100894.22
2023-05-17T20:43:45.065Z,100904.03
2023-05-17T20:46:13.088Z,100906.91
2023-05-17T20:48:42.708Z,100913.09
2023-05-17T20:51:10.274Z,100917.69
2023-05-17T20:53:37.206Z,100903.66
2023-05-17T20:56:03.610Z,100902.81
2023-05-17T20:58:30.029Z,100886.41
2023-05-17T21:00:57.456Z,100900.53
2023-05-17T21:03:28.329Z,100894.50
2023-05-17T21:05:55.277Z,100909.50
2023-05-17T21:08:21.976Z,100916.63
2023-05-17T21:10:49.631Z,100907.94
2023-05-17T21:13:16.127Z,100916.81
2023-05-17T21:15:42.600Z,100922.25
2023-05-17T21:18:10.773Z,100926.72
2023-05-17T21:20:37.588Z,100925.03
2023-05-17T21:23:03.952Z,100922.44
2023-05-17T21:25:30.542Z,100917.16
2023-05-17T21:27:56.955Z,100923.41
2023-05-17T21:30:24.022Z,100920.81
2023-05-17T21:32:50.552Z,100906.03
2023-05-17T21:35:16.960Z,100919.19
2023-05-17T21:37:43.398Z,100929.00
2023-05-17T21:40:10.306Z,100924.66
2023-05-17T21:42:36.752Z,100920.34
2023-05-17T21:45:03.307Z,100927.47
2023-05-17T21:47:29.674Z,100924.94
2023-05-17T21:49:56.063Z,100918.88
2023-05-17T21:52:22.426Z,100923.34
2023-05-17T21:54:48.813Z,100925.16
2023-05-17T21:57:15.452Z,100936.72
2023-05-17T21:59:42.037Z,100936.81
2023-05-17T22:02:08.766Z,100925.44
2023-05-17T22:04:35.281Z,100928.22
2023-05-17T22:07:01.735Z,100938.81
2023-05-17T22:09:28.080Z,100931.81
2023-05-17T22:11:58.191Z,100935.34
2023-05-17T22:14:32.906Z,100935.47
2023-05-17T22:17:00.079Z,100930.19
2023-05-17T22:19:26.592Z,100930.28
2023-05-17T22:21:52.986Z,100934.78
2023-05-17T22:24:21.701Z,100922.72
2023-05-17T22:26:48.041Z,100934.97
2023-05-17T22:29:14.544Z,100932.41
2023-05-17T22:31:40.917Z,100932.50
2023-05-17T22:34:07.293Z,100936.16
2023-05-17T22:36:34.268Z,100935.31
2023-05-17T22:39:00.766Z,100935.41
2023-05-17T22:41:27.537Z,100931.06
2023-05-17T22:43:53.890Z,100938.25
2023-05-17T22:46:20.273Z,100939.25
2023-05-17T22:48:46.608Z,100937.63
2023-05-17T22:51:16.640Z,100940.41
2023-05-17T22:53:42.983Z,100944.03
2023-05-17T22:56:09.537Z,100938.94
2023-05-17T22:58:35.892Z,100934.53
2023-05-17T23:01:02.302Z,100947.78
2023-05-17T23:03:28.669Z,100946.13
2023-05-17T23:06:02.256Z,100949.69
2023-05-17T23:08:32.362Z,100949.81
2023-05-17T23:10:58.795Z,100950.75
2023-05-17T23:13:26.081Z,100957.81
2023-05-17T23:15:52.725Z,100956.09
2023-05-17T23:18:19.254Z,100954.31
2023-05-17T23:20:46.260Z,100956.97
2023-05-17T23:23:13.356Z,100943.84
2023-05-17T23:25:39.756Z,100947.38
2023-05-17T23:28:06.189Z,100926.25
2023-05-17T23:30:32.803Z,100942.09
2023-05-17T23:33:00.016Z,100947.38
2023-05-17T23:35:27.200Z,100932.44
2023-05-17T23:37:53.691Z,100934.13
2023-05-17T23:40:20.050Z,100943.84
2023-05-17T23:42:46.488Z,100940.31
2023-05-17T23:45:12.864Z,100938.53
2023-05-17T23:47:40.771Z,100935.88
2023-05-17T23:50:11.811Z,100935.03
2023-05-17T23:52:39.159Z,100916.66
2023-05-17T23:55:07.306Z,100932.44
2023-05-17T23:57:34.766Z,100922.81
